Cherry Point MCAS /Cunningham Field/
KNKT : now visible

Airfield :











YOU CAN JOIN US ON...

 
LOGIN :

Register | Disclaimer

   EN    FR    IT 

 









Legend :    VFR   Marginal VFR   IFR   Intensive IFR   Very Intensive IFR
Visi :
Ceiling :
>= 8 km
>= 3000ft
5 to 8 km
1000 to 3000 ft
1500m to 5 km
500 to 1000 ft
800 to 1500m
200 to 500 ft
< 800m
< 200 ft
Symbols :   Thunderstorms  Fog  Heavy snow  Heavy precipitations  Wind > 20 kt






- Airport Elevation : 29 ft


KNKT - Cherry Point MCAS /Cunningham Field/

CURRENT METAR :
  • 231354Z 00000KT 10SM CLR 07/03 A3035 RMK AO2 SLP275 T00720033

EXPIRED METARs :
  • 231254Z 00000KT 10SM CLR 00/M02 A3036 RMK AO2 SLP276 T00001022
  • 231154Z 00000KT 10SM CLR M02/M04 A3034 RMK AO2 SLP271 I1000 I6000 T10171039 11006 21022 50007

TAF TAF KNKT
Valid from the 23 at 09:00 until the 24 at 09:00 UTC


2309/2409 VRB04KT 9999 SKC QNH3025INS
BECMG 2318/2320 20010KT 9999 SCT200 QNH3023INS
FM232000 21005KT 9999 SCT150 QNH3020INS T14/2319Z TM02/2409Z



MET'MAP, your aeronautical weather chart ! - Copyright ORBIFLY December 2007 - Disclaimer

ORBIFLY MET'MAP TEAM :

Programming & Development : Alexandra Zaïnal
Concept & original design : Baudouin d'Aumeries
Assistance for programming : Marc-Olivier Méhu
Technical & hardware support : Manuel Goepfert

Contact : metmap@orbifly.com




SOURCES & CREDITS :

   NOAA       Earth
Advisory